createdAt,value
2019-01-29T00:00:45.686Z,99.90
2019-01-29T00:01:50.579Z,99.90
2019-01-29T00:02:54.575Z,99.90
2019-01-29T00:03:58.679Z,99.90
2019-01-29T00:05:02.668Z,99.90
2019-01-29T00:06:06.589Z,99.90
2019-01-29T00:07:10.692Z,99.90
2019-01-29T00:08:14.568Z,99.90
2019-01-29T00:09:18.564Z,99.90
2019-01-29T00:10:22.644Z,99.90
2019-01-29T00:11:26.978Z,99.90
2019-01-29T00:12:30.790Z,99.90
2019-01-29T00:13:34.799Z,99.90
2019-01-29T00:14:38.667Z,99.90
2019-01-29T00:15:42.549Z,99.90
2019-01-29T00:16:46.699Z,99.90
2019-01-29T00:17:50.907Z,99.90
2019-01-29T00:18:54.993Z,99.90
2019-01-29T00:19:58.987Z,99.90
2019-01-29T00:21:02.888Z,99.90
2019-01-29T00:22:06.693Z,99.90
2019-01-29T00:23:10.804Z,99.90
2019-01-29T00:24:14.904Z,99.90
2019-01-29T00:25:19.005Z,99.90
2019-01-29T00:26:23.326Z,99.90
2019-01-29T00:27:27.207Z,99.90
2019-01-29T00:28:31.308Z,99.90
2019-01-29T00:29:35.401Z,99.90
2019-01-29T00:30:39.409Z,99.90
2019-01-29T00:31:43.799Z,99.90
2019-01-29T00:32:47.683Z,99.90
2019-01-29T00:33:51.804Z,99.90
2019-01-29T00:34:55.727Z,99.90
2019-01-29T00:35:59.705Z,99.90
2019-01-29T00:37:03.821Z,99.90
2019-01-29T00:38:08.003Z,99.90
2019-01-29T00:39:12.011Z,99.90
2019-01-29T00:40:15.854Z,99.90
2019-01-29T00:41:19.847Z,99.90
2019-01-29T00:42:23.751Z,99.90
2019-01-29T00:43:27.741Z,99.90
2019-01-29T00:44:32.125Z,99.90
2019-01-29T00:45:36.541Z,99.90
2019-01-29T00:46:40.436Z,99.90
2019-01-29T00:47:44.356Z,99.90
2019-01-29T00:48:48.388Z,99.90
2019-01-29T00:49:52.392Z,99.90
2019-01-29T00:50:56.321Z,99.90
2019-01-29T00:52:00.435Z,99.90
2019-01-29T00:53:04.867Z,99.90
2019-01-29T00:54:09.339Z,99.90
2019-01-29T00:55:13.650Z,99.90
2019-01-29T00:56:17.785Z,99.90
2019-01-29T00:57:21.908Z,99.90
2019-01-29T00:58:25.825Z,99.90
2019-01-29T00:59:29.841Z,99.90
2019-01-29T01:00:33.851Z,99.90
2019-01-29T01:01:37.965Z,99.90
2019-01-29T01:02:41.984Z,99.90
2019-01-29T01:03:45.866Z,99.90
2019-01-29T01:04:49.881Z,99.90
2019-01-29T01:05:53.872Z,99.90
2019-01-29T01:06:57.883Z,99.90
2019-01-29T01:08:01.746Z,99.90
2019-01-29T01:09:08.505Z,99.90
2019-01-29T01:10:14.303Z,99.90
2019-01-29T01:11:18.210Z,99.90
2019-01-29T01:12:22.187Z,99.90
2019-01-29T01:13:26.068Z,99.90
2019-01-29T01:14:30.049Z,99.90
2019-01-29T01:15:34.053Z,99.90
2019-01-29T01:16:38.044Z,99.90
2019-01-29T01:17:41.929Z,99.90
2019-01-29T01:18:45.956Z,99.90
2019-01-29T01:19:49.997Z,99.90
2019-01-29T01:20:54.013Z,99.90
2019-01-29T01:21:58.071Z,99.90
2019-01-29T01:23:02.054Z,99.90
2019-01-29T01:24:06.124Z,99.90
2019-01-29T01:25:10.370Z,99.90
2019-01-29T01:26:14.260Z,99.90
2019-01-29T01:27:18.163Z,99.90
2019-01-29T01:28:22.017Z,99.90
2019-01-29T01:29:26.094Z,99.90
2019-01-29T01:30:30.013Z,99.90
2019-01-29T01:31:33.877Z,99.90
2019-01-29T01:32:37.865Z,99.90
2019-01-29T01:33:41.893Z,99.90
2019-01-29T01:34:45.879Z,99.90
2019-01-29T01:35:49.917Z,99.90
2019-01-29T01:36:54.023Z,99.90
2019-01-29T01:37:57.822Z,99.90
2019-01-29T01:39:01.917Z,99.90
2019-01-29T01:40:08.884Z,99.90
2019-01-29T01:41:12.701Z,99.90
2019-01-29T01:42:16.743Z,99.90
2019-01-29T01:43:20.753Z,99.90
2019-01-29T01:44:24.716Z,99.90
2019-01-29T01:45:28.599Z,99.90
2019-01-29T01:46:32.468Z,99.90
2019-01-29T01:47:36.429Z,99.90
2019-01-29T01:48:40.544Z,99.90
2019-01-29T01:49:44.557Z,99.90
2019-01-29T01:50:48.521Z,99.90
2019-01-29T01:51:52.523Z,99.90
2019-01-29T01:52:59.363Z,99.90
2019-01-29T01:54:02.613Z,99.90
2019-01-29T01:55:08.471Z,99.90
2019-01-29T01:56:12.475Z,99.90
2019-01-29T01:57:16.293Z,99.90
2019-01-29T01:58:20.303Z,99.90
2019-01-29T01:59:24.302Z,99.90
2019-01-29T02:00:28.297Z,99.90
2019-01-29T02:01:32.399Z,99.90
2019-01-29T02:02:36.356Z,99.90
2019-01-29T02:03:40.355Z,99.90
2019-01-29T02:04:44.709Z,99.90
2019-01-29T02:05:48.722Z,99.90
2019-01-29T02:06:52.663Z,99.90
2019-01-29T02:07:56.675Z,99.90
2019-01-29T02:09:00.662Z,99.90
2019-01-29T02:10:06.697Z,99.90
2019-01-29T02:11:10.598Z,99.90
2019-01-29T02:12:14.619Z,99.90
2019-01-29T02:13:18.763Z,99.90
2019-01-29T02:14:22.849Z,99.90
2019-01-29T02:15:26.923Z,99.90
2019-01-29T02:16:30.975Z,99.90
2019-01-29T02:17:34.940Z,99.90
2019-01-29T02:18:38.870Z,99.90
2019-01-29T02:19:42.763Z,99.90
2019-01-29T02:20:46.787Z,99.90
2019-01-29T02:21:50.847Z,99.90
2019-01-29T02:22:54.757Z,99.90
2019-01-29T02:23:58.838Z,99.90
2019-01-29T02:25:02.873Z,99.90
2019-01-29T02:26:07.507Z,99.90
2019-01-29T02:27:11.407Z,99.90
2019-01-29T02:28:15.396Z,99.80
2019-01-29T02:29:19.847Z,99.40
2019-01-29T02:30:24.944Z,99.90
2019-01-29T02:31:29.034Z,99.90
2019-01-29T02:32:33.075Z,99.90
2019-01-29T02:33:36.871Z,99.90
2019-01-29T02:34:40.893Z,99.90
2019-01-29T02:35:44.901Z,99.90
2019-01-29T02:36:48.805Z,98.70
2019-01-29T02:37:52.714Z,98.80
2019-01-29T02:38:56.499Z,98.40
2019-01-29T02:40:00.645Z,98.90
2019-01-29T02:41:04.741Z,99.90
2019-01-29T02:42:08.875Z,99.50
2019-01-29T02:43:12.778Z,98.90
2019-01-29T02:44:16.692Z,99.90
2019-01-29T02:45:20.714Z,98.30
2019-01-29T02:46:24.659Z,99.90
2019-01-29T02:47:28.713Z,99.90
2019-01-29T02:48:32.730Z,99.90
2019-01-29T02:49:36.529Z,99.10
2019-01-29T02:50:40.455Z,99.90
2019-01-29T02:51:44.398Z,99.20
2019-01-29T02:52:48.528Z,98.60
2019-01-29T02:53:52.538Z,99.50
2019-01-29T02:54:56.437Z,99.90
2019-01-29T02:56:00.403Z,99.30
2019-01-29T02:57:04.439Z,99.30
2019-01-29T02:58:08.472Z,99.90
2019-01-29T02:59:12.570Z,99.10
2019-01-29T03:00:18.919Z,99.30
2019-01-29T03:01:23.072Z,99.00
2019-01-29T03:02:27.226Z,99.90
2019-01-29T03:03:31.017Z,99.90
2019-01-29T03:04:35.139Z,99.90
2019-01-29T03:05:39.097Z,99.90
2019-01-29T03:06:43.114Z,98.90
2019-01-29T03:07:47.007Z,98.60
2019-01-29T03:08:51.047Z,99.30
2019-01-29T03:09:55.203Z,99.90
2019-01-29T03:10:59.002Z,99.30
2019-01-29T03:12:02.973Z,98.90
2019-01-29T03:13:07.099Z,99.90
2019-01-29T03:14:11.123Z,99.60
2019-01-29T03:15:17.696Z,99.90
2019-01-29T03:16:21.582Z,99.90
2019-01-29T03:17:25.461Z,99.90
2019-01-29T03:18:29.338Z,99.50
2019-01-29T03:19:33.400Z,99.90
2019-01-29T03:20:37.522Z,99.90
2019-01-29T03:21:41.565Z,99.90
2019-01-29T03:22:45.524Z,99.90
2019-01-29T03:23:49.315Z,99.90
2019-01-29T03:24:53.333Z,99.90
2019-01-29T03:25:57.129Z,99.90
2019-01-29T03:27:00.901Z,99.90
2019-01-29T03:28:04.804Z,99.90
2019-01-29T03:29:08.921Z,99.90
2019-01-29T03:30:14.635Z,99.90
2019-01-29T03:31:18.632Z,99.90
2019-01-29T03:32:22.632Z,99.80
2019-01-29T03:33:26.724Z,99.90
2019-01-29T03:34:30.517Z,99.90
2019-01-29T03:35:34.849Z,99.90
2019-01-29T03:36:38.964Z,99.50
2019-01-29T03:37:42.986Z,99.50
2019-01-29T03:38:47.014Z,99.90
2019-01-29T03:39:50.992Z,99.90
2019-01-29T03:40:54.997Z,99.90
2019-01-29T03:41:58.777Z,99.90
2019-01-29T03:43:02.795Z,99.90
2019-01-29T03:44:06.598Z,99.90
2019-01-29T03:45:13.270Z,99.90
2019-01-29T03:46:17.635Z,99.90
2019-01-29T03:47:21.763Z,98.90
2019-01-29T03:48:25.877Z,99.30
2019-01-29T03:49:29.886Z,99.90
2019-01-29T03:50:33.815Z,99.90
2019-01-29T03:51:37.715Z,99.90
2019-01-29T03:52:41.740Z,99.50
2019-01-29T03:53:46.103Z,99.70
2019-01-29T03:54:50.058Z,99.00
2019-01-29T03:55:53.999Z,99.60
2019-01-29T03:56:58.103Z,98.40
2019-01-29T03:58:02.019Z,99.40
2019-01-29T03:59:05.887Z,98.70
2019-01-29T04:00:24.330Z,99.70
2019-01-29T04:01:28.366Z,99.90
2019-01-29T04:02:32.184Z,98.90
2019-01-29T04:03:36.211Z,98.80
2019-01-29T04:04:39.995Z,99.90
2019-01-29T04:05:43.972Z,99.30
2019-01-29T04:06:47.780Z,99.80
2019-01-29T04:07:51.817Z,99.90
2019-01-29T04:08:55.878Z,99.30
2019-01-29T04:09:59.978Z,99.90
2019-01-29T04:11:03.876Z,99.90
2019-01-29T04:12:07.809Z,99.90
2019-01-29T04:13:11.727Z,99.60
2019-01-29T04:14:15.835Z,99.90
2019-01-29T04:15:20.389Z,99.20
2019-01-29T04:16:24.297Z,99.90
2019-01-29T04:17:28.349Z,99.90
2019-01-29T04:18:32.487Z,99.90
2019-01-29T04:19:36.699Z,99.90
2019-01-29T04:20:40.611Z,99.90
2019-01-29T04:21:44.470Z,99.90
2019-01-29T04:22:48.541Z,99.10
2019-01-29T04:23:52.561Z,99.30
2019-01-29T04:24:56.696Z,98.80
2019-01-29T04:26:00.713Z,99.70
2019-01-29T04:27:04.707Z,98.20
2019-01-29T04:28:08.610Z,99.20
2019-01-29T04:29:12.499Z,99.90
2019-01-29T04:30:18.411Z,98.80
2019-01-29T04:31:22.500Z,98.80
2019-01-29T04:32:26.523Z,99.60
2019-01-29T04:33:30.383Z,99.60
2019-01-29T04:34:34.470Z,99.80
2019-01-29T04:35:38.510Z,99.10
2019-01-29T04:36:42.476Z,99.90
2019-01-29T04:37:46.273Z,99.90
2019-01-29T04:38:50.273Z,99.90
2019-01-29T04:39:54.309Z,99.90
2019-01-29T04:40:58.430Z,99.80
2019-01-29T04:42:02.331Z,99.70
2019-01-29T04:43:06.485Z,99.90
2019-01-29T04:44:10.553Z,99.70
2019-01-29T04:45:15.131Z,99.90
2019-01-29T04:46:19.111Z,99.90
2019-01-29T04:47:23.130Z,99.90
2019-01-29T04:48:27.038Z,99.90
2019-01-29T04:49:30.947Z,99.70
2019-01-29T04:50:34.927Z,99.40
2019-01-29T04:51:39.175Z,99.90
2019-01-29T04:52:43.196Z,99.90
2019-01-29T04:53:56.682Z,99.90
2019-01-29T04:54:52.990Z,98.70
2019-01-29T04:55:57.136Z,99.20
2019-01-29T04:57:01.122Z,99.90
2019-01-29T04:58:05.211Z,99.90
2019-01-29T04:59:09.103Z,99.90
2019-01-29T05:00:24.383Z,99.90
2019-01-29T05:01:28.660Z,99.30
2019-01-29T05:02:32.658Z,99.90
2019-01-29T05:03:36.645Z,99.90
2019-01-29T05:04:40.677Z,99.90
2019-01-29T05:05:44.501Z,99.90
2019-01-29T05:06:49.768Z,99.90
2019-01-29T05:07:54.025Z,99.90
2019-01-29T05:08:58.114Z,99.90
2019-01-29T05:10:02.087Z,99.90
2019-01-29T05:11:06.071Z,99.90
2019-01-29T05:12:12.105Z,99.90
2019-01-29T05:13:15.739Z,99.90
2019-01-29T05:14:19.906Z,99.90
2019-01-29T05:15:23.792Z,99.90
2019-01-29T05:16:27.687Z,99.90
2019-01-29T05:17:31.555Z,99.90
2019-01-29T05:18:35.589Z,99.90
2019-01-29T05:19:39.507Z,99.90
2019-01-29T05:20:43.401Z,99.90
2019-01-29T05:21:47.304Z,99.90
2019-01-29T05:22:51.345Z,99.90
2019-01-29T05:23:55.330Z,99.90
2019-01-29T05:24:59.300Z,99.90
2019-01-29T05:26:03.193Z,99.90
2019-01-29T05:27:07.488Z,99.90
2019-01-29T05:28:11.495Z,99.90
2019-01-29T05:29:15.556Z,99.90
2019-01-29T05:30:21.580Z,99.90
2019-01-29T05:31:25.558Z,99.90
2019-01-29T05:32:29.922Z,99.90
2019-01-29T05:33:34.070Z,99.90
2019-01-29T05:34:38.176Z,99.90
2019-01-29T05:35:41.946Z,99.90
2019-01-29T05:36:45.921Z,99.90
2019-01-29T05:37:49.939Z,99.90
2019-01-29T05:38:53.763Z,99.90
2019-01-29T05:39:57.796Z,99.90
2019-01-29T05:41:02.047Z,99.90
2019-01-29T05:42:05.898Z,99.90
2019-01-29T05:43:09.896Z,99.90
2019-01-29T05:44:14.415Z,99.90
2019-01-29T05:45:19.604Z,99.90
2019-01-29T05:46:25.214Z,99.90
2019-01-29T05:47:29.344Z,99.90
2019-01-29T05:48:33.239Z,99.90
2019-01-29T05:49:37.355Z,99.90
2019-01-29T05:50:41.121Z,99.90
2019-01-29T05:51:45.081Z,99.90
2019-01-29T05:52:48.989Z,99.90
2019-01-29T05:53:53.113Z,99.90
2019-01-29T05:54:57.137Z,99.90
2019-01-29T05:56:01.046Z,99.90
2019-01-29T05:57:05.018Z,99.90
2019-01-29T05:58:09.027Z,99.90
2019-01-29T05:59:12.940Z,99.90
2019-01-29T06:00:27.135Z,99.90
2019-01-29T06:01:31.183Z,99.90
2019-01-29T06:02:35.152Z,99.90
2019-01-29T06:03:39.188Z,99.90
2019-01-29T06:04:43.183Z,99.90
2019-01-29T06:05:47.001Z,99.90
2019-01-29T06:06:51.188Z,99.90
2019-01-29T06:07:55.199Z,99.90
2019-01-29T06:08:59.076Z,99.90
2019-01-29T06:10:03.064Z,99.90
2019-01-29T06:11:07.129Z,99.90
2019-01-29T06:12:11.235Z,99.90
2019-01-29T06:13:15.215Z,99.90
2019-01-29T06:14:19.299Z,99.90
2019-01-29T06:15:23.465Z,99.90
2019-01-29T06:16:27.384Z,99.90
2019-01-29T06:17:31.425Z,99.90
2019-01-29T06:18:54.684Z,99.90
2019-01-29T06:19:58.684Z,99.90
2019-01-29T06:21:02.692Z,99.90
2019-01-29T06:22:06.715Z,99.90
2019-01-29T06:23:10.717Z,99.90
2019-01-29T06:24:14.643Z,99.90
2019-01-29T06:25:18.603Z,99.90
2019-01-29T06:26:22.612Z,99.90
2019-01-29T06:27:26.651Z,99.90
2019-01-29T06:28:30.728Z,99.90
2019-01-29T06:29:34.628Z,99.90
2019-01-29T06:30:38.631Z,99.90
2019-01-29T06:31:42.419Z,99.90
2019-01-29T06:32:46.549Z,99.90
2019-01-29T06:33:50.531Z,99.90
2019-01-29T06:34:54.403Z,99.90
2019-01-29T06:35:58.518Z,99.90
2019-01-29T06:37:02.639Z,99.90
2019-01-29T06:38:06.786Z,99.90
2019-01-29T06:39:11.034Z,99.90
2019-01-29T06:40:17.419Z,99.90
2019-01-29T06:41:21.385Z,99.90
2019-01-29T06:42:25.514Z,99.90
2019-01-29T06:43:29.534Z,99.90
2019-01-29T06:44:33.442Z,99.90
2019-01-29T06:45:37.460Z,99.90
2019-01-29T06:46:41.442Z,99.90
2019-01-29T06:47:45.474Z,99.90
2019-01-29T06:48:49.392Z,99.90
2019-01-29T06:49:53.412Z,99.90
2019-01-29T06:50:57.535Z,99.30
2019-01-29T06:52:01.328Z,99.90
2019-01-29T06:53:05.432Z,99.90
2019-01-29T06:54:09.581Z,99.90
2019-01-29T06:55:15.801Z,99.90
2019-01-29T06:56:19.809Z,99.90
2019-01-29T06:57:23.864Z,99.70
2019-01-29T06:58:27.647Z,99.80
2019-01-29T06:59:31.650Z,97.50
2019-01-29T07:00:35.643Z,98.00
2019-01-29T07:01:39.668Z,99.00
2019-01-29T07:02:43.725Z,99.00
2019-01-29T07:03:47.647Z,99.70
2019-01-29T07:04:51.647Z,99.90
2019-01-29T07:05:55.772Z,99.00
2019-01-29T07:06:59.883Z,99.70
2019-01-29T07:08:03.900Z,99.50
2019-01-29T07:09:08.973Z,99.60
2019-01-29T07:10:14.034Z,99.90
2019-01-29T07:11:18.025Z,99.90
2019-01-29T07:12:22.013Z,99.90
2019-01-29T07:13:26.143Z,99.40
2019-01-29T07:14:30.291Z,99.40
2019-01-29T07:16:08.506Z,99.90
2019-01-29T07:17:28.780Z,99.90
2019-01-29T07:18:39.862Z,98.50
2019-01-29T07:19:46.916Z,99.90
2019-01-29T07:20:50.922Z,98.70
2019-01-29T07:21:54.955Z,99.70
2019-01-29T07:22:58.958Z,98.20
2019-01-29T07:24:02.963Z,99.20
2019-01-29T07:25:08.203Z,99.40
2019-01-29T07:26:12.369Z,98.30
2019-01-29T07:27:16.376Z,99.30
2019-01-29T07:28:20.382Z,98.80
2019-01-29T07:29:24.367Z,99.40
2019-01-29T07:30:28.341Z,99.30
2019-01-29T07:31:32.955Z,99.60
2019-01-29T07:32:36.923Z,99.90
2019-01-29T07:33:42.045Z,99.90
2019-01-29T07:34:46.309Z,99.90
2019-01-29T07:35:50.209Z,99.90
2019-01-29T07:36:54.221Z,99.30
2019-01-29T07:37:58.189Z,99.90
2019-01-29T07:39:02.288Z,99.90
2019-01-29T07:40:07.135Z,99.90
2019-01-29T07:41:11.062Z,98.50
2019-01-29T07:42:15.113Z,99.00
2019-01-29T07:43:19.244Z,99.90
2019-01-29T07:44:23.342Z,99.90
2019-01-29T07:45:27.335Z,99.90
2019-01-29T07:46:31.153Z,99.90
2019-01-29T07:47:35.123Z,99.90
2019-01-29T07:48:39.284Z,99.90
2019-01-29T07:49:43.289Z,99.90
2019-01-29T07:50:47.597Z,99.40
2019-01-29T07:51:51.708Z,99.90
2019-01-29T07:52:55.609Z,99.40
2019-01-29T07:53:59.760Z,99.90
2019-01-29T07:55:03.902Z,99.00
2019-01-29T07:56:07.853Z,99.80
2019-01-29T07:57:11.756Z,99.90
2019-01-29T07:58:15.725Z,99.20
2019-01-29T07:59:32.387Z,99.90
2019-01-29T08:00:25.431Z,99.90
2019-01-29T08:01:29.409Z,99.80
2019-01-29T08:02:33.189Z,99.10
2019-01-29T08:03:38.248Z,99.90
2019-01-29T08:04:42.645Z,99.90
2019-01-29T08:05:46.655Z,99.80
2019-01-29T08:06:50.668Z,99.40
2019-01-29T08:07:54.700Z,98.90
2019-01-29T08:08:58.730Z,99.50
2019-01-29T08:10:02.729Z,99.90
2019-01-29T08:11:06.574Z,99.90
2019-01-29T08:12:11.252Z,99.90
2019-01-29T08:13:15.417Z,99.90
2019-01-29T08:14:19.472Z,99.90
2019-01-29T08:15:23.496Z,99.80
2019-01-29T08:16:27.365Z,99.90
2019-01-29T08:17:31.276Z,99.90
2019-01-29T08:18:35.154Z,98.20
2019-01-29T08:19:39.271Z,98.90
2019-01-29T08:20:43.409Z,99.10
2019-01-29T08:21:47.515Z,99.60
2019-01-29T08:22:51.397Z,99.90
2019-01-29T08:23:55.411Z,99.90
2019-01-29T08:25:01.695Z,99.90
2019-01-29T08:26:05.086Z,99.90
2019-01-29T08:27:09.144Z,99.90
2019-01-29T08:28:12.950Z,99.90
2019-01-29T08:29:16.819Z,99.90
2019-01-29T08:30:20.934Z,99.90
2019-01-29T08:31:25.093Z,99.90
2019-01-29T08:32:29.070Z,99.90
2019-01-29T08:33:33.177Z,99.90
2019-01-29T08:34:37.080Z,99.90
2019-01-29T08:35:41.647Z,99.90
2019-01-29T08:36:45.771Z,99.90
2019-01-29T08:37:49.769Z,99.90
2019-01-29T08:38:53.889Z,99.90
2019-01-29T08:39:58.193Z,99.00
2019-01-29T08:41:02.116Z,99.90
2019-01-29T08:42:05.975Z,99.90
2019-01-29T08:43:10.000Z,98.90
2019-01-29T08:44:13.887Z,98.70
2019-01-29T08:45:18.037Z,98.50
2019-01-29T08:46:23.378Z,99.90
2019-01-29T08:47:27.552Z,99.90
2019-01-29T08:48:31.380Z,99.70
2019-01-29T08:49:35.395Z,99.50
2019-01-29T08:50:39.391Z,99.50
2019-01-29T08:51:43.314Z,99.40
2019-01-29T08:52:47.590Z,99.90
2019-01-29T08:53:51.485Z,99.90
2019-01-29T08:54:55.388Z,99.90
2019-01-29T08:55:59.405Z,99.80
2019-01-29T08:57:03.431Z,99.50
2019-01-29T08:58:07.307Z,99.90
2019-01-29T08:59:11.201Z,99.90
2019-01-29T09:00:16.194Z,99.90
2019-01-29T09:01:20.213Z,99.90
2019-01-29T09:02:24.362Z,99.90
2019-01-29T09:03:28.501Z,99.90
2019-01-29T09:04:32.406Z,99.90
2019-01-29T09:05:36.361Z,99.90
2019-01-29T09:06:40.255Z,99.90
2019-01-29T09:07:44.157Z,99.90
2019-01-29T09:08:48.255Z,99.90
2019-01-29T09:09:52.093Z,99.90
2019-01-29T09:10:55.994Z,99.90
2019-01-29T09:11:59.983Z,99.90
2019-01-29T09:13:04.070Z,99.70
2019-01-29T09:14:08.065Z,99.90
2019-01-29T09:15:14.101Z,99.90
2019-01-29T09:16:18.363Z,99.90
2019-01-29T09:17:22.418Z,98.10
2019-01-29T09:18:26.548Z,98.00
2019-01-29T09:19:30.447Z,98.10
2019-01-29T09:20:34.373Z,97.70
2019-01-29T09:21:38.816Z,98.40
2019-01-29T09:22:42.795Z,98.30
2019-01-29T09:23:46.915Z,99.60
2019-01-29T09:24:51.029Z,99.90
2019-01-29T09:25:55.031Z,99.90
2019-01-29T09:26:59.005Z,99.90
2019-01-29T09:28:03.028Z,98.50
2019-01-29T09:29:07.147Z,96.70
2019-01-29T09:30:13.615Z,99.30
2019-01-29T09:31:18.125Z,98.70
2019-01-29T09:32:22.079Z,97.70
2019-01-29T09:33:25.984Z,97.70
2019-01-29T09:34:30.111Z,99.60
2019-01-29T09:35:34.049Z,98.40
2019-01-29T09:36:38.081Z,96.40
2019-01-29T09:37:42.045Z,96.90
2019-01-29T09:38:46.039Z,96.70
2019-01-29T09:39:49.952Z,97.00
2019-01-29T09:40:54.020Z,98.40
2019-01-29T09:41:58.032Z,98.30
2019-01-29T09:43:01.943Z,97.90
2019-01-29T09:44:05.947Z,97.10
2019-01-29T09:45:11.456Z,96.60
2019-01-29T09:46:15.355Z,98.10
2019-01-29T09:47:19.350Z,97.90
2019-01-29T09:48:23.417Z,93.70
2019-01-29T09:49:27.439Z,94.90
2019-01-29T09:50:31.446Z,94.70
2019-01-29T09:51:35.331Z,96.00
2019-01-29T09:52:39.232Z,96.10
2019-01-29T09:53:43.267Z,95.80
2019-01-29T09:54:47.248Z,97.10
2019-01-29T09:55:51.103Z,97.90
2019-01-29T09:56:55.425Z,96.00
2019-01-29T09:57:59.461Z,95.90
2019-01-29T09:59:03.598Z,95.50
2019-01-29T10:00:11.010Z,94.30
2019-01-29T10:01:15.025Z,93.20
2019-01-29T10:02:19.010Z,92.70
2019-01-29T10:03:22.882Z,94.80
2019-01-29T10:04:26.724Z,95.50
2019-01-29T10:05:30.817Z,94.70
2019-01-29T10:06:34.898Z,95.00
2019-01-29T10:07:38.844Z,93.90
2019-01-29T10:08:42.873Z,94.90
2019-01-29T10:09:46.656Z,94.20
2019-01-29T10:10:50.667Z,95.00
2019-01-29T10:11:54.821Z,94.10
2019-01-29T10:13:00.205Z,94.20
2019-01-29T10:14:04.223Z,93.40
2019-01-29T10:15:10.891Z,92.90
2019-01-29T10:16:14.777Z,93.40
2019-01-29T10:17:18.951Z,95.20
2019-01-29T10:18:22.980Z,96.10
2019-01-29T10:19:26.995Z,96.60
2019-01-29T10:20:31.095Z,95.80
2019-01-29T10:21:35.103Z,95.00
2019-01-29T10:22:39.103Z,94.10
2019-01-29T10:23:43.429Z,93.10
2019-01-29T10:24:47.423Z,93.70
2019-01-29T10:25:51.465Z,95.00
2019-01-29T10:26:55.627Z,93.70
2019-01-29T10:27:59.541Z,93.80
2019-01-29T10:29:03.320Z,93.00
2019-01-29T10:30:08.589Z,93.50
2019-01-29T10:31:12.661Z,93.50
2019-01-29T10:32:16.815Z,92.60
2019-01-29T10:33:20.833Z,93.70
2019-01-29T10:34:24.807Z,92.60
2019-01-29T10:35:29.005Z,93.30
2019-01-29T10:36:33.053Z,93.90
2019-01-29T10:37:37.087Z,94.20
2019-01-29T10:38:41.199Z,93.80
2019-01-29T10:39:45.309Z,93.30
2019-01-29T10:40:49.249Z,93.90
2019-01-29T10:41:53.801Z,94.70
2019-01-29T10:42:57.824Z,93.60
2019-01-29T10:44:01.722Z,92.70
2019-01-29T10:45:06.623Z,91.70
2019-01-29T10:46:10.515Z,92.00
2019-01-29T10:47:14.724Z,93.20
2019-01-29T10:48:18.903Z,92.50
2019-01-29T10:49:22.833Z,93.50
2019-01-29T10:50:27.787Z,94.10
2019-01-29T10:51:31.883Z,94.50
2019-01-29T10:52:35.953Z,94.40
2019-01-29T10:53:39.979Z,93.30
2019-01-29T10:54:43.948Z,93.50
2019-01-29T10:55:47.980Z,91.70
2019-01-29T10:56:51.821Z,92.80
2019-01-29T10:57:55.946Z,91.80
2019-01-29T10:58:59.876Z,90.60
2019-01-29T11:00:04.173Z,91.40
2019-01-29T11:01:08.073Z,92.10
2019-01-29T11:02:12.065Z,92.30
2019-01-29T11:03:16.087Z,92.90
2019-01-29T11:04:20.231Z,94.10
2019-01-29T11:05:24.381Z,94.90
2019-01-29T11:06:28.773Z,94.20
2019-01-29T11:07:32.678Z,95.40
2019-01-29T11:08:36.664Z,95.40
2019-01-29T11:09:40.707Z,95.80
2019-01-29T11:10:44.499Z,94.90
2019-01-29T11:11:48.489Z,95.30
2019-01-29T11:12:52.416Z,96.00
2019-01-29T11:13:56.756Z,95.60
2019-01-29T11:15:00.681Z,96.10
2019-01-29T11:16:04.668Z,96.30
2019-01-29T11:17:08.777Z,97.10
2019-01-29T11:18:14.867Z,97.50
2019-01-29T11:19:18.869Z,97.90
2019-01-29T11:20:23.035Z,97.60
2019-01-29T11:21:27.001Z,97.20
2019-01-29T11:22:30.846Z,95.90
2019-01-29T11:23:34.956Z,96.30
2019-01-29T11:24:38.911Z,95.90
2019-01-29T11:25:42.915Z,95.70
2019-01-29T11:26:46.805Z,96.20
2019-01-29T11:27:50.733Z,94.90
2019-01-29T11:28:54.539Z,95.40
2019-01-29T11:29:58.433Z,95.90
2019-01-29T11:31:02.397Z,95.70
2019-01-29T11:32:06.713Z,94.10
2019-01-29T11:33:10.756Z,94.90
2019-01-29T11:34:14.849Z,96.20
2019-01-29T11:35:18.765Z,95.40
2019-01-29T11:36:22.802Z,95.80
2019-01-29T11:37:26.721Z,96.00
2019-01-29T11:38:30.528Z,97.00
2019-01-29T11:39:34.511Z,96.60
2019-01-29T11:40:38.649Z,96.30
2019-01-29T11:41:42.685Z,95.60
2019-01-29T11:42:46.758Z,95.00
2019-01-29T11:43:50.777Z,96.20
2019-01-29T11:44:54.671Z,96.40
2019-01-29T11:45:58.623Z,97.50
2019-01-29T11:47:02.524Z,96.90
2019-01-29T11:48:06.531Z,96.40
2019-01-29T11:49:11.023Z,95.60
2019-01-29T11:50:15.036Z,95.00
2019-01-29T11:51:19.150Z,96.40
2019-01-29T11:52:23.324Z,95.60
2019-01-29T11:53:27.247Z,95.50
2019-01-29T11:54:31.158Z,95.40
2019-01-29T11:55:35.163Z,95.70
2019-01-29T11:56:39.147Z,94.80
2019-01-29T11:57:43.143Z,94.40
2019-01-29T11:58:47.157Z,94.70
2019-01-29T11:59:51.185Z,95.60
2019-01-29T12:01:20.351Z,94.40
2019-01-29T12:02:28.442Z,95.70
2019-01-29T12:03:31.487Z,94.80
2019-01-29T12:04:35.492Z,95.40
2019-01-29T12:05:39.521Z,96.10
2019-01-29T12:06:43.691Z,96.30
2019-01-29T12:07:47.721Z,96.20
2019-01-29T12:08:51.660Z,97.20
2019-01-29T12:09:56.581Z,97.10
2019-01-29T12:11:00.713Z,97.60
2019-01-29T12:12:04.808Z,96.90
2019-01-29T12:13:08.759Z,95.50
2019-01-29T12:14:12.797Z,96.40
2019-01-29T12:15:17.279Z,96.30
2019-01-29T12:16:21.315Z,93.10
2019-01-29T12:17:25.425Z,93.00
2019-01-29T12:18:29.508Z,93.10
2019-01-29T12:19:33.575Z,93.10
2019-01-29T12:20:37.467Z,92.90
2019-01-29T12:21:41.442Z,92.80
2019-01-29T12:22:45.443Z,92.40
2019-01-29T12:23:49.356Z,92.80
2019-01-29T12:24:53.262Z,94.20
2019-01-29T12:25:57.451Z,93.60
2019-01-29T12:27:01.799Z,93.80
2019-01-29T12:28:12.071Z,91.60
2019-01-29T12:29:15.886Z,91.30
2019-01-29T12:30:20.615Z,91.90
2019-01-29T12:31:24.663Z,92.70
2019-01-29T12:32:28.530Z,93.20
2019-01-29T12:33:32.530Z,92.90
2019-01-29T12:34:36.435Z,93.20
2019-01-29T12:35:40.320Z,92.30
2019-01-29T12:36:44.315Z,93.30
2019-01-29T12:37:48.364Z,93.70
2019-01-29T12:38:52.256Z,94.90
2019-01-29T12:39:56.160Z,94.70
2019-01-29T12:41:00.118Z,93.30
2019-01-29T12:42:04.048Z,93.10
2019-01-29T12:43:07.987Z,94.40
2019-01-29T12:44:12.103Z,95.70
2019-01-29T12:45:17.677Z,97.10
2019-01-29T12:46:21.580Z,98.10
2019-01-29T12:47:25.514Z,96.80
2019-01-29T12:48:29.621Z,96.60
2019-01-29T12:49:33.555Z,98.90
2019-01-29T12:50:38.943Z,99.90
2019-01-29T12:52:08.133Z,99.90
2019-01-29T12:53:17.711Z,99.90
2019-01-29T12:54:21.692Z,99.90
2019-01-29T12:55:25.807Z,99.90
2019-01-29T12:56:29.815Z,99.90
2019-01-29T12:57:33.832Z,99.90
2019-01-29T12:58:37.978Z,99.90
2019-01-29T12:59:41.859Z,99.90
2019-01-29T13:00:49.245Z,99.90
2019-01-29T13:01:53.148Z,99.90
2019-01-29T13:02:57.093Z,99.90
2019-01-29T13:04:01.037Z,99.90
2019-01-29T13:05:05.267Z,99.90
2019-01-29T13:06:09.358Z,99.90
2019-01-29T13:07:13.129Z,99.90
2019-01-29T13:08:17.278Z,99.90
2019-01-29T13:09:21.325Z,99.90
2019-01-29T13:10:25.457Z,99.90
2019-01-29T13:11:29.488Z,99.90
2019-01-29T13:12:33.489Z,99.90
2019-01-29T13:13:37.558Z,99.90
2019-01-29T13:14:41.382Z,99.90
2019-01-29T13:15:45.332Z,99.90
2019-01-29T13:16:49.341Z,99.90
2019-01-29T13:17:53.343Z,99.90
2019-01-29T13:18:57.341Z,99.90
2019-01-29T13:20:01.451Z,99.90
2019-01-29T13:21:05.359Z,99.90
2019-01-29T13:22:09.441Z,99.90
2019-01-29T13:23:13.246Z,99.90
2019-01-29T13:24:17.245Z,99.90
2019-01-29T13:25:21.368Z,99.90
2019-01-29T13:26:30.183Z,99.90
2019-01-29T13:27:31.030Z,99.90
2019-01-29T13:28:34.820Z,99.90
2019-01-29T13:29:38.837Z,99.90
2019-01-29T13:30:42.727Z,99.90
2019-01-29T13:31:46.875Z,99.90
2019-01-29T13:32:50.943Z,99.90
2019-01-29T13:33:54.951Z,99.90
2019-01-29T13:34:58.943Z,99.90
2019-01-29T13:36:02.955Z,99.90
2019-01-29T13:37:06.979Z,99.90
2019-01-29T13:38:11.320Z,99.90
2019-01-29T13:39:15.216Z,99.90
2019-01-29T13:40:19.108Z,99.90
2019-01-29T13:41:23.045Z,99.90
2019-01-29T13:42:26.951Z,99.90
2019-01-29T13:43:30.957Z,99.90
2019-01-29T13:44:34.955Z,99.90
2019-01-29T13:45:38.859Z,99.90
2019-01-29T13:46:42.875Z,99.90
2019-01-29T13:47:46.899Z,99.90
2019-01-29T13:48:50.904Z,99.90